sensor_id;sensor_type;location;lat;lon;timestamp;P1;durP1;ratioP1;P2;durP2;ratioP2
8476;SDS011;4275;42.854;23.222;2023-09-07T00:00:46;21.20;;;20.00;;
8476;SDS011;4275;42.854;23.222;2023-09-07T00:03:13;21.52;;;20.33;;
8476;SDS011;4275;42.854;23.222;2023-09-07T00:05:40;21.38;;;20.17;;
8476;SDS011;4275;42.854;23.222;2023-09-07T00:08:07;21.70;;;20.50;;
8476;SDS011;4275;42.854;23.222;2023-09-07T00:10:36;21.60;;;20.40;;
8476;SDS011;4275;42.854;23.222;2023-09-07T00:13:03;21.45;;;20.25;;
8476;SDS011;4275;42.854;23.222;2023-09-07T00:15:30;21.60;;;20.40;;
8476;SDS011;4275;42.854;23.222;2023-09-07T00:18:03;21.48;;;20.27;;
8476;SDS011;4275;42.854;23.222;2023-09-07T00:20:36;21.77;;;20.55;;
8476;SDS011;4275;42.854;23.222;2023-09-07T00:23:03;21.92;;;20.67;;
8476;SDS011;4275;42.854;23.222;2023-09-07T00:25:30;21.48;;;20.27;;
8476;SDS011;4275;42.854;23.222;2023-09-07T00:27:59;21.67;;;20.48;;
8476;SDS011;4275;42.854;23.222;2023-09-07T00:30:26;21.95;;;20.75;;
8476;SDS011;4275;42.854;23.222;2023-09-07T00:32:54;21.80;;;20.60;;
8476;SDS011;4275;42.854;23.222;2023-09-07T00:35:21;21.60;;;20.40;;
8476;SDS011;4275;42.854;23.222;2023-09-07T00:37:48;21.77;;;20.58;;
8476;SDS011;4275;42.854;23.222;2023-09-07T00:40:14;21.77;;;20.58;;
8476;SDS011;4275;42.854;23.222;2023-09-07T00:42:42;21.75;;;20.55;;
8476;SDS011;4275;42.854;23.222;2023-09-07T00:48:21;22.00;;;20.80;;
8476;SDS011;4275;42.854;23.222;2023-09-07T00:50:51;21.98;;;20.77;;
8476;SDS011;4275;42.854;23.222;2023-09-07T00:53:18;21.75;;;20.55;;
8476;SDS011;4275;42.854;23.222;2023-09-07T00:55:45;21.55;;;20.35;;
8476;SDS011;4275;42.854;23.222;2023-09-07T00:58:12;22.15;;;20.95;;
8476;SDS011;4275;42.854;23.222;2023-09-07T01:04:03;22.15;;;20.95;;
8476;SDS011;4275;42.854;23.222;2023-09-07T01:09:54;21.38;;;20.17;;
8476;SDS011;4275;42.854;23.222;2023-09-07T01:12:27;21.45;;;20.25;;
8476;SDS011;4275;42.854;23.222;2023-09-07T01:15:02;21.10;;;20.00;;
8476;SDS011;4275;42.854;23.222;2023-09-07T01:18:00;20.88;;;19.67;;
8476;SDS011;4275;42.854;23.222;2023-09-07T01:23:18;21.60;;;20.40;;
8476;SDS011;4275;42.854;23.222;2023-09-07T01:25:45;21.65;;;20.45;;
8476;SDS011;4275;42.854;23.222;2023-09-07T01:28:13;21.58;;;20.38;;
8476;SDS011;4275;42.854;23.222;2023-09-07T01:30:40;20.77;;;19.67;;
8476;SDS011;4275;42.854;23.222;2023-09-07T01:33:07;20.90;;;19.80;;
8476;SDS011;4275;42.854;23.222;2023-09-07T01:35:34;20.88;;;19.77;;
8476;SDS011;4275;42.854;23.222;2023-09-07T01:41:06;21.15;;;19.95;;
8476;SDS011;4275;42.854;23.222;2023-09-07T01:43:37;20.88;;;19.77;;
8476;SDS011;4275;42.854;23.222;2023-09-07T01:46:04;20.83;;;19.73;;
8476;SDS011;4275;42.854;23.222;2023-09-07T01:52:03;21.25;;;20.13;;
8476;SDS011;4275;42.854;23.222;2023-09-07T01:54:31;21.02;;;19.92;;
8476;SDS011;4275;42.854;23.222;2023-09-07T01:56:58;21.02;;;19.92;;
8476;SDS011;4275;42.854;23.222;2023-09-07T01:59:29;21.15;;;20.05;;
8476;SDS011;4275;42.854;23.222;2023-09-07T02:01:56;21.00;;;19.90;;
8476;SDS011;4275;42.854;23.222;2023-09-07T02:04:22;21.23;;;20.05;;
8476;SDS011;4275;42.854;23.222;2023-09-07T02:06:55;21.60;;;20.40;;
8476;SDS011;4275;42.854;23.222;2023-09-07T02:09:28;20.92;;;19.83;;
8476;SDS011;4275;42.854;23.222;2023-09-07T02:18:11;20.67;;;19.58;;
8476;SDS011;4275;42.854;23.222;2023-09-07T02:24:00;20.40;;;19.30;;
8476;SDS011;4275;42.854;23.222;2023-09-07T02:29:30;20.85;;;19.75;;
8476;SDS011;4275;42.854;23.222;2023-09-07T02:32:10;21.15;;;19.95;;
8476;SDS011;4275;42.854;23.222;2023-09-07T02:34:37;20.63;;;19.52;;
8476;SDS011;4275;42.854;23.222;2023-09-07T02:37:04;21.20;;;20.10;;
8476;SDS011;4275;42.854;23.222;2023-09-07T02:39:34;21.15;;;19.95;;
8476;SDS011;4275;42.854;23.222;2023-09-07T02:42:01;21.33;;;20.13;;
8476;SDS011;4275;42.854;23.222;2023-09-07T02:44:28;20.67;;;19.58;;
8476;SDS011;4275;42.854;23.222;2023-09-07T02:46:55;21.30;;;20.10;;
8476;SDS011;4275;42.854;23.222;2023-09-07T02:49:24;20.73;;;19.63;;
8476;SDS011;4275;42.854;23.222;2023-09-07T02:51:51;20.77;;;19.67;;
8476;SDS011;4275;42.854;23.222;2023-09-07T02:54:18;21.20;;;20.00;;
8476;SDS011;4275;42.854;23.222;2023-09-07T02:56:45;20.88;;;19.67;;
8476;SDS011;4275;42.854;23.222;2023-09-07T02:59:20;20.98;;;19.77;;
8476;SDS011;4275;42.854;23.222;2023-09-07T03:01:47;20.45;;;19.35;;
8476;SDS011;4275;42.854;23.222;2023-09-07T03:04:14;20.35;;;19.25;;
8476;SDS011;4275;42.854;23.222;2023-09-07T03:06:42;20.35;;;19.25;;
8476;SDS011;4275;42.854;23.222;2023-09-07T03:09:09;20.60;;;19.50;;
8476;SDS011;4275;42.854;23.222;2023-09-07T03:14:25;20.45;;;19.35;;
8476;SDS011;4275;42.854;23.222;2023-09-07T03:16:52;20.92;;;19.75;;
8476;SDS011;4275;42.854;23.222;2023-09-07T03:19:25;20.52;;;19.42;;
8476;SDS011;4275;42.854;23.222;2023-09-07T03:21:55;20.80;;;19.60;;
8476;SDS011;4275;42.854;23.222;2023-09-07T03:24:22;20.38;;;19.27;;
8476;SDS011;4275;42.854;23.222;2023-09-07T03:26:49;20.42;;;19.33;;
8476;SDS011;4275;42.854;23.222;2023-09-07T03:29:16;20.27;;;19.17;;
8476;SDS011;4275;42.854;23.222;2023-09-07T03:31:43;20.17;;;19.08;;
8476;SDS011;4275;42.854;23.222;2023-09-07T03:34:10;20.42;;;19.35;;
8476;SDS011;4275;42.854;23.222;2023-09-07T03:36:37;20.33;;;19.23;;
8476;SDS011;4275;42.854;23.222;2023-09-07T03:39:06;20.75;;;19.65;;
8476;SDS011;4275;42.854;23.222;2023-09-07T03:41:33;20.33;;;19.23;;
8476;SDS011;4275;42.854;23.222;2023-09-07T03:44:00;19.67;;;18.58;;
8476;SDS011;4275;42.854;23.222;2023-09-07T03:46:27;20.15;;;19.05;;
8476;SDS011;4275;42.854;23.222;2023-09-07T03:48:54;19.55;;;18.45;;
8476;SDS011;4275;42.854;23.222;2023-09-07T03:51:21;19.65;;;18.55;;
8476;SDS011;4275;42.854;23.222;2023-09-07T03:53:48;19.70;;;18.60;;
8476;SDS011;4275;42.854;23.222;2023-09-07T03:56:16;19.45;;;18.40;;
8476;SDS011;4275;42.854;23.222;2023-09-07T03:58:43;18.77;;;17.77;;
8476;SDS011;4275;42.854;23.222;2023-09-07T04:01:12;18.80;;;17.80;;
8476;SDS011;4275;42.854;23.222;2023-09-07T04:03:39;19.10;;;18.00;;
8476;SDS011;4275;42.854;23.222;2023-09-07T04:06:07;18.55;;;17.55;;
8476;SDS011;4275;42.854;23.222;2023-09-07T04:08:34;18.30;;;17.30;;
8476;SDS011;4275;42.854;23.222;2023-09-07T04:11:03;17.70;;;16.80;;
8476;SDS011;4275;42.854;23.222;2023-09-07T04:13:31;18.10;;;17.10;;
8476;SDS011;4275;42.854;23.222;2023-09-07T04:15:59;18.52;;;17.55;;
8476;SDS011;4275;42.854;23.222;2023-09-07T04:18:26;18.35;;;17.35;;
8476;SDS011;4275;42.854;23.222;2023-09-07T04:20:53;18.70;;;17.70;;
8476;SDS011;4275;42.854;23.222;2023-09-07T04:23:30;18.00;;;17.00;;
8476;SDS011;4275;42.854;23.222;2023-09-07T04:26:03;17.52;;;16.63;;
8476;SDS011;4275;42.854;23.222;2023-09-07T04:28:32;16.50;;;15.70;;
8476;SDS011;4275;42.854;23.222;2023-09-07T04:30:59;15.90;;;15.20;;
8476;SDS011;4275;42.854;23.222;2023-09-07T04:33:26;16.10;;;15.40;;
8476;SDS011;4275;42.854;23.222;2023-09-07T04:35:55;16.17;;;15.48;;
8476;SDS011;4275;42.854;23.222;2023-09-07T04:38:22;17.20;;;16.50;;
8476;SDS011;4275;42.854;23.222;2023-09-07T04:40:49;17.30;;;16.50;;
8476;SDS011;4275;42.854;23.222;2023-09-07T04:43:16;16.70;;;16.10;;
8476;SDS011;4275;42.854;23.222;2023-09-07T04:45:47;14.50;;;14.00;;
8476;SDS011;4275;42.854;23.222;2023-09-07T04:48:14;14.20;;;13.80;;
8476;SDS011;4275;42.854;23.222;2023-09-07T04:50:41;14.30;;;13.88;;
8476;SDS011;4275;42.854;23.222;2023-09-07T04:53:08;13.18;;;12.77;;
8476;SDS011;4275;42.854;23.222;2023-09-07T04:55:37;12.82;;;12.43;;
8476;SDS011;4275;42.854;23.222;2023-09-07T04:58:04;13.82;;;13.43;;
8476;SDS011;4275;42.854;23.222;2023-09-07T05:00:32;14.50;;;14.00;;
8476;SDS011;4275;42.854;23.222;2023-09-07T05:03:00;13.32;;;12.93;;
8476;SDS011;4275;42.854;23.222;2023-09-07T05:05:27;15.38;;;14.88;;
8476;SDS011;4275;42.854;23.222;2023-09-07T05:10:44;13.50;;;13.10;;
8476;SDS011;4275;42.854;23.222;2023-09-07T05:13:10;14.30;;;13.80;;
8476;SDS011;4275;42.854;23.222;2023-09-07T05:15:46;15.82;;;15.23;;
8476;SDS011;4275;42.854;23.222;2023-09-07T05:18:15;15.52;;;15.02;;
8476;SDS011;4275;42.854;23.222;2023-09-07T05:20:42;15.45;;;14.95;;
8476;SDS011;4275;42.854;23.222;2023-09-07T05:23:11;14.90;;;14.40;;
8476;SDS011;4275;42.854;23.222;2023-09-07T05:25:42;13.80;;;13.40;;
8476;SDS011;4275;42.854;23.222;2023-09-07T05:28:12;13.45;;;13.05;;
8476;SDS011;4275;42.854;23.222;2023-09-07T05:30:39;13.43;;;13.02;;
8476;SDS011;4275;42.854;23.222;2023-09-07T05:33:06;13.88;;;13.38;;
8476;SDS011;4275;42.854;23.222;2023-09-07T05:35:36;14.27;;;13.77;;
8476;SDS011;4275;42.854;23.222;2023-09-07T05:38:03;14.57;;;14.07;;
8476;SDS011;4275;42.854;23.222;2023-09-07T05:40:33;15.48;;;14.88;;
8476;SDS011;4275;42.854;23.222;2023-09-07T05:43:00;15.98;;;15.38;;
8476;SDS011;4275;42.854;23.222;2023-09-07T05:45:29;15.85;;;15.25;;
8476;SDS011;4275;42.854;23.222;2023-09-07T05:47:56;15.85;;;15.25;;
8476;SDS011;4275;42.854;23.222;2023-09-07T05:50:23;16.08;;;15.38;;
8476;SDS011;4275;42.854;23.222;2023-09-07T05:52:52;16.20;;;15.50;;
8476;SDS011;4275;42.854;23.222;2023-09-07T05:55:19;15.90;;;15.20;;
8476;SDS011;4275;42.854;23.222;2023-09-07T05:57:46;15.75;;;15.05;;
8476;SDS011;4275;42.854;23.222;2023-09-07T06:00:14;16.80;;;16.00;;
8476;SDS011;4275;42.854;23.222;2023-09-07T06:02:42;16.65;;;15.85;;
8476;SDS011;4275;42.854;23.222;2023-09-07T06:05:09;16.58;;;15.77;;
8476;SDS011;4275;42.854;23.222;2023-09-07T06:07:36;17.10;;;16.20;;
8476;SDS011;4275;42.854;23.222;2023-09-07T06:10:05;16.58;;;15.77;;
8476;SDS011;4275;42.854;23.222;2023-09-07T06:12:33;17.13;;;16.23;;
8476;SDS011;4275;42.854;23.222;2023-09-07T06:15:00;17.27;;;16.38;;
8476;SDS011;4275;42.854;23.222;2023-09-07T06:17:28;17.25;;;16.35;;
8476;SDS011;4275;42.854;23.222;2023-09-07T06:19:55;17.67;;;16.67;;
8476;SDS011;4275;42.854;23.222;2023-09-07T06:22:22;17.63;;;16.63;;
8476;SDS011;4275;42.854;23.222;2023-09-07T06:24:49;18.13;;;17.05;;
8476;SDS011;4275;42.854;23.222;2023-09-07T06:27:18;19.17;;;18.08;;
8476;SDS011;4275;42.854;23.222;2023-09-07T06:29:45;19.08;;;18.08;;
8476;SDS011;4275;42.854;23.222;2023-09-07T06:32:12;18.60;;;17.60;;
8476;SDS011;4275;42.854;23.222;2023-09-07T06:34:39;18.80;;;17.80;;
8476;SDS011;4275;42.854;23.222;2023-09-07T06:37:06;19.20;;;18.10;;
8476;SDS011;4275;42.854;23.222;2023-09-07T06:39:33;18.98;;;17.88;;
8476;SDS011;4275;42.854;23.222;2023-09-07T06:42:00;19.30;;;18.20;;
8476;SDS011;4275;42.854;23.222;2023-09-07T06:44:30;19.15;;;18.05;;
8476;SDS011;4275;42.854;23.222;2023-09-07T06:46:57;18.50;;;17.50;;
8476;SDS011;4275;42.854;23.222;2023-09-07T06:49:24;19.35;;;18.25;;
8476;SDS011;4275;42.854;23.222;2023-09-07T06:51:51;19.50;;;18.50;;
8476;SDS011;4275;42.854;23.222;2023-09-07T06:54:18;19.45;;;18.45;;
8476;SDS011;4275;42.854;23.222;2023-09-07T06:56:45;19.33;;;18.33;;
8476;SDS011;4275;42.854;23.222;2023-09-07T06:59:12;19.05;;;18.05;;
8476;SDS011;4275;42.854;23.222;2023-09-07T07:01:40;19.52;;;18.52;;
8476;SDS011;4275;42.854;23.222;2023-09-07T07:04:10;19.10;;;18.10;;
8476;SDS011;4275;42.854;23.222;2023-09-07T07:06:37;19.25;;;18.25;;
8476;SDS011;4275;42.854;23.222;2023-09-07T07:09:05;18.95;;;18.05;;
8476;SDS011;4275;42.854;23.222;2023-09-07T07:11:32;19.98;;;18.98;;
8476;SDS011;4275;42.854;23.222;2023-09-07T07:13:59;19.45;;;18.48;;
8476;SDS011;4275;42.854;23.222;2023-09-07T07:16:26;19.98;;;19.02;;
8476;SDS011;4275;42.854;23.222;2023-09-07T07:18:54;20.45;;;19.52;;
8476;SDS011;4275;42.854;23.222;2023-09-07T07:21:21;20.30;;;19.30;;
8476;SDS011;4275;42.854;23.222;2023-09-07T07:23:49;19.98;;;18.98;;
8476;SDS011;4275;42.854;23.222;2023-09-07T07:26:16;21.10;;;20.10;;
8476;SDS011;4275;42.854;23.222;2023-09-07T07:28:43;20.75;;;19.75;;
8476;SDS011;4275;42.854;23.222;2023-09-07T07:31:10;20.77;;;19.77;;
8476;SDS011;4275;42.854;23.222;2023-09-07T07:33:37;20.40;;;19.40;;
8476;SDS011;4275;42.854;23.222;2023-09-07T07:36:06;19.85;;;18.88;;
8476;SDS011;4275;42.854;23.222;2023-09-07T07:38:34;20.55;;;19.55;;
8476;SDS011;4275;42.854;23.222;2023-09-07T07:41:01;20.17;;;19.17;;
8476;SDS011;4275;42.854;23.222;2023-09-07T07:43:28;20.40;;;19.40;;
8476;SDS011;4275;42.854;23.222;2023-09-07T07:45:55;21.00;;;20.00;;
8476;SDS011;4275;42.854;23.222;2023-09-07T07:48:23;20.55;;;19.55;;
8476;SDS011;4275;42.854;23.222;2023-09-07T07:50:50;21.35;;;20.35;;
8476;SDS011;4275;42.854;23.222;2023-09-07T07:53:19;21.25;;;20.25;;
8476;SDS011;4275;42.854;23.222;2023-09-07T07:55:46;21.60;;;20.50;;
8476;SDS011;4275;42.854;23.222;2023-09-07T07:58:13;21.38;;;20.38;;
8476;SDS011;4275;42.854;23.222;2023-09-07T08:00:40;20.92;;;19.83;;
8476;SDS011;4275;42.854;23.222;2023-09-07T08:03:10;21.77;;;20.67;;
8476;SDS011;4275;42.854;23.222;2023-09-07T08:05:37;22.35;;;21.25;;
8476;SDS011;4275;42.854;23.222;2023-09-07T08:08:05;22.30;;;21.20;;
8476;SDS011;4275;42.854;23.222;2023-09-07T08:10:34;21.35;;;20.25;;
8476;SDS011;4275;42.854;23.222;2023-09-07T08:13:02;22.98;;;21.88;;
8476;SDS011;4275;42.854;23.222;2023-09-07T08:15:31;22.27;;;21.27;;
8476;SDS011;4275;42.854;23.222;2023-09-07T08:17:58;22.77;;;21.67;;
8476;SDS011;4275;42.854;23.222;2023-09-07T08:20:25;22.60;;;21.50;;
8476;SDS011;4275;42.854;23.222;2023-09-07T08:22:52;22.40;;;21.30;;
8476;SDS011;4275;42.854;23.222;2023-09-07T08:25:19;22.38;;;21.27;;
8476;SDS011;4275;42.854;23.222;2023-09-07T08:27:48;22.10;;;21.00;;
8476;SDS011;4275;42.854;23.222;2023-09-07T08:30:16;22.38;;;21.27;;
8476;SDS011;4275;42.854;23.222;2023-09-07T08:32:43;22.90;;;21.70;;
8476;SDS011;4275;42.854;23.222;2023-09-07T08:35:11;21.55;;;20.35;;
8476;SDS011;4275;42.854;23.222;2023-09-07T08:37:39;20.23;;;19.05;;
8476;SDS011;4275;42.854;23.222;2023-09-07T08:40:06;20.40;;;19.30;;
8476;SDS011;4275;42.854;23.222;2023-09-07T08:42:35;20.65;;;19.55;;
8476;SDS011;4275;42.854;23.222;2023-09-07T08:45:04;21.52;;;20.33;;
8476;SDS011;4275;42.854;23.222;2023-09-07T08:47:34;20.80;;;19.70;;
8476;SDS011;4275;42.854;23.222;2023-09-07T08:50:04;21.17;;;20.08;;
8476;SDS011;4275;42.854;23.222;2023-09-07T08:52:33;20.65;;;19.48;;
8476;SDS011;4275;42.854;23.222;2023-09-07T08:55:00;20.55;;;19.45;;
8476;SDS011;4275;42.854;23.222;2023-09-07T08:57:29;20.95;;;19.75;;
8476;SDS011;4275;42.854;23.222;2023-09-07T08:59:57;20.88;;;19.67;;
8476;SDS011;4275;42.854;23.222;2023-09-07T09:02:25;21.08;;;19.88;;
8476;SDS011;4275;42.854;23.222;2023-09-07T09:04:52;20.50;;;19.33;;
8476;SDS011;4275;42.854;23.222;2023-09-07T09:07:20;20.98;;;19.77;;
8476;SDS011;4275;42.854;23.222;2023-09-07T09:09:47;20.98;;;19.88;;
8476;SDS011;4275;42.854;23.222;2023-09-07T09:12:14;21.02;;;19.80;;
8476;SDS011;4275;42.854;23.222;2023-09-07T09:14:42;20.58;;;19.27;;
8476;SDS011;4275;42.854;23.222;2023-09-07T09:17:11;21.15;;;19.85;;
8476;SDS011;4275;42.854;23.222;2023-09-07T09:19:40;20.50;;;19.20;;
8476;SDS011;4275;42.854;23.222;2023-09-07T09:22:08;20.88;;;19.67;;
8476;SDS011;4275;42.854;23.222;2023-09-07T09:24:36;20.88;;;19.67;;
8476;SDS011;4275;42.854;23.222;2023-09-07T09:27:03;20.30;;;19.10;;
8476;SDS011;4275;42.854;23.222;2023-09-07T09:29:32;20.42;;;19.23;;
8476;SDS011;4275;42.854;23.222;2023-09-07T09:31:59;20.55;;;19.35;;
8476;SDS011;4275;42.854;23.222;2023-09-07T09:34:31;20.42;;;19.23;;
8476;SDS011;4275;42.854;23.222;2023-09-07T09:37:01;19.73;;;18.63;;
8476;SDS011;4275;42.854;23.222;2023-09-07T09:39:29;20.30;;;19.10;;
8476;SDS011;4275;42.854;23.222;2023-09-07T09:41:56;20.52;;;19.33;;
8476;SDS011;4275;42.854;23.222;2023-09-07T09:44:24;20.48;;;19.27;;
8476;SDS011;4275;42.854;23.222;2023-09-07T09:46:51;20.30;;;19.10;;
8476;SDS011;4275;42.854;23.222;2023-09-07T09:49:20;20.13;;;18.92;;
8476;SDS011;4275;42.854;23.222;2023-09-07T09:51:48;20.30;;;19.10;;
8476;SDS011;4275;42.854;23.222;2023-09-07T09:54:18;20.23;;;19.02;;
8476;SDS011;4275;42.854;23.222;2023-09-07T09:56:45;20.35;;;19.15;;
8476;SDS011;4275;42.854;23.222;2023-09-07T09:59:12;20.23;;;19.02;;
8476;SDS011;4275;42.854;23.222;2023-09-07T10:01:40;20.38;;;19.17;;
8476;SDS011;4275;42.854;23.222;2023-09-07T10:04:11;19.75;;;18.65;;
8476;SDS011;4275;42.854;23.222;2023-09-07T10:06:49;19.30;;;18.20;;
8476;SDS011;4275;42.854;23.222;2023-09-07T10:09:21;18.85;;;17.85;;
8476;SDS011;4275;42.854;23.222;2023-09-07T10:11:51;19.05;;;17.98;;
8476;SDS011;4275;42.854;23.222;2023-09-07T10:14:20;19.45;;;18.35;;
8476;SDS011;4275;42.854;23.222;2023-09-07T10:16:47;18.88;;;17.88;;
8476;SDS011;4275;42.854;23.222;2023-09-07T10:19:17;19.40;;;18.30;;
8476;SDS011;4275;42.854;23.222;2023-09-07T10:21:45;19.23;;;18.13;;
8476;SDS011;4275;42.854;23.222;2023-09-07T10:24:24;19.25;;;18.15;;
8476;SDS011;4275;42.854;23.222;2023-09-07T10:27:01;19.38;;;18.27;;
8476;SDS011;4275;42.854;23.222;2023-09-07T10:29:40;19.60;;;18.50;;
8476;SDS011;4275;42.854;23.222;2023-09-07T10:32:07;19.10;;;18.00;;
8476;SDS011;4275;42.854;23.222;2023-09-07T10:34:37;19.33;;;18.23;;
8476;SDS011;4275;42.854;23.222;2023-09-07T10:37:08;19.30;;;18.20;;
8476;SDS011;4275;42.854;23.222;2023-09-07T10:39:39;19.25;;;18.15;;
8476;SDS011;4275;42.854;23.222;2023-09-07T10:42:08;19.20;;;18.15;;
8476;SDS011;4275;42.854;23.222;2023-09-07T10:44:35;19.05;;;18.05;;
8476;SDS011;4275;42.854;23.222;2023-09-07T10:47:02;19.35;;;18.35;;
8476;SDS011;4275;42.854;23.222;2023-09-07T10:49:30;20.42;;;19.23;;
8476;SDS011;4275;42.854;23.222;2023-09-07T10:51:57;19.60;;;18.50;;
8476;SDS011;4275;42.854;23.222;2023-09-07T10:54:24;20.23;;;19.08;;
8476;SDS011;4275;42.854;23.222;2023-09-07T10:56:53;19.70;;;18.60;;
8476;SDS011;4275;42.854;23.222;2023-09-07T10:59:22;19.48;;;18.38;;
8476;SDS011;4275;42.854;23.222;2023-09-07T11:01:49;19.77;;;18.67;;
8476;SDS011;4275;42.854;23.222;2023-09-07T11:04:18;19.77;;;18.58;;
8476;SDS011;4275;42.854;23.222;2023-09-07T11:06:45;19.13;;;18.02;;
8476;SDS011;4275;42.854;23.222;2023-09-07T11:09:12;19.15;;;18.05;;
8476;SDS011;4275;42.854;23.222;2023-09-07T11:11:46;19.15;;;18.05;;
8476;SDS011;4275;42.854;23.222;2023-09-07T11:14:14;19.38;;;18.17;;
8476;SDS011;4275;42.854;23.222;2023-09-07T11:16:41;19.35;;;18.25;;
8476;SDS011;4275;42.854;23.222;2023-09-07T11:19:09;19.30;;;18.10;;
8476;SDS011;4275;42.854;23.222;2023-09-07T11:21:36;18.90;;;17.90;;
8476;SDS011;4275;42.854;23.222;2023-09-07T11:24:03;19.42;;;18.23;;
8476;SDS011;4275;42.854;23.222;2023-09-07T11:26:40;19.45;;;18.35;;
8476;SDS011;4275;42.854;23.222;2023-09-07T11:29:08;19.23;;;18.13;;
8476;SDS011;4275;42.854;23.222;2023-09-07T11:31:36;19.27;;;18.15;;
8476;SDS011;4275;42.854;23.222;2023-09-07T11:34:03;19.40;;;18.20;;
8476;SDS011;4275;42.854;23.222;2023-09-07T11:36:34;19.73;;;18.52;;
8476;SDS011;4275;42.854;23.222;2023-09-07T11:39:01;19.73;;;18.52;;
8476;SDS011;4275;42.854;23.222;2023-09-07T11:41:35;19.73;;;18.52;;
8476;SDS011;4275;42.854;23.222;2023-09-07T11:44:02;20.08;;;18.98;;
8476;SDS011;4275;42.854;23.222;2023-09-07T11:46:30;19.75;;;18.55;;
8476;SDS011;4275;42.854;23.222;2023-09-07T11:48:58;19.58;;;18.42;;
8476;SDS011;4275;42.854;23.222;2023-09-07T11:51:25;19.95;;;18.75;;
8476;SDS011;4275;42.854;23.222;2023-09-07T11:53:52;19.95;;;18.75;;
8476;SDS011;4275;42.854;23.222;2023-09-07T11:56:19;19.95;;;18.75;;
8476;SDS011;4275;42.854;23.222;2023-09-07T11:58:46;19.88;;;18.67;;
8476;SDS011;4275;42.854;23.222;2023-09-07T12:01:13;19.67;;;18.48;;
8476;SDS011;4275;42.854;23.222;2023-09-07T12:03:41;19.45;;;18.35;;
8476;SDS011;4275;42.854;23.222;2023-09-07T12:06:10;19.40;;;18.25;;
8476;SDS011;4275;42.854;23.222;2023-09-07T12:08:37;19.70;;;18.50;;
8476;SDS011;4275;42.854;23.222;2023-09-07T12:11:04;19.38;;;18.17;;
8476;SDS011;4275;42.854;23.222;2023-09-07T12:13:31;19.67;;;18.48;;
8476;SDS011;4275;42.854;23.222;2023-09-07T12:15:57;19.60;;;18.40;;
8476;SDS011;4275;42.854;23.222;2023-09-07T12:18:26;19.85;;;18.75;;
8476;SDS011;4275;42.854;23.222;2023-09-07T12:20:53;19.27;;;18.08;;
8476;SDS011;4275;42.854;23.222;2023-09-07T12:23:21;19.42;;;18.23;;
8476;SDS011;4275;42.854;23.222;2023-09-07T12:25:48;19.58;;;18.38;;
8476;SDS011;4275;42.854;23.222;2023-09-07T12:28:16;19.58;;;18.38;;
8476;SDS011;4275;42.854;23.222;2023-09-07T12:30:43;19.70;;;18.50;;
8476;SDS011;4275;42.854;23.222;2023-09-07T12:33:10;19.77;;;18.58;;
8476;SDS011;4275;42.854;23.222;2023-09-07T12:35:37;19.67;;;18.48;;
8476;SDS011;4275;42.854;23.222;2023-09-07T12:38:04;19.90;;;18.70;;
8476;SDS011;4275;42.854;23.222;2023-09-07T12:40:34;19.42;;;18.33;;
8476;SDS011;4275;42.854;23.222;2023-09-07T12:43:01;20.17;;;18.98;;
8476;SDS011;4275;42.854;23.222;2023-09-07T12:45:29;20.27;;;19.08;;
8476;SDS011;4275;42.854;23.222;2023-09-07T12:47:56;20.35;;;19.15;;
8476;SDS011;4275;42.854;23.222;2023-09-07T12:50:24;21.27;;;20.08;;
8476;SDS011;4275;42.854;23.222;2023-09-07T12:52:51;20.25;;;19.05;;
8476;SDS011;4275;42.854;23.222;2023-09-07T12:55:19;20.35;;;19.15;;
8476;SDS011;4275;42.854;23.222;2023-09-07T12:57:48;19.10;;;18.00;;
8476;SDS011;4275;42.854;23.222;2023-09-07T13:00:15;18.98;;;17.88;;
8476;SDS011;4275;42.854;23.222;2023-09-07T13:02:43;18.98;;;17.98;;
8476;SDS011;4275;42.854;23.222;2023-09-07T13:05:09;19.00;;;17.90;;
8476;SDS011;4275;42.854;23.222;2023-09-07T13:07:36;20.00;;;18.90;;
8476;SDS011;4275;42.854;23.222;2023-09-07T13:10:06;19.13;;;18.02;;
8476;SDS011;4275;42.854;23.222;2023-09-07T13:12:33;19.42;;;18.33;;
8476;SDS011;4275;42.854;23.222;2023-09-07T13:15:02;19.55;;;18.45;;
8476;SDS011;4275;42.854;23.222;2023-09-07T13:17:29;19.70;;;18.60;;
8476;SDS011;4275;42.854;23.222;2023-09-07T13:19:56;19.65;;;18.45;;
8476;SDS011;4275;42.854;23.222;2023-09-07T13:22:23;19.35;;;18.25;;
8476;SDS011;4275;42.854;23.222;2023-09-07T13:24:50;19.58;;;18.48;;
8476;SDS011;4275;42.854;23.222;2023-09-07T13:27:17;19.63;;;18.52;;
8476;SDS011;4275;42.854;23.222;2023-09-07T13:29:44;19.50;;;18.40;;
8476;SDS011;4275;42.854;23.222;2023-09-07T13:32:12;19.67;;;18.48;;
8476;SDS011;4275;42.854;23.222;2023-09-07T13:34:39;19.55;;;18.45;;
8476;SDS011;4275;42.854;23.222;2023-09-07T13:37:06;19.70;;;18.50;;
8476;SDS011;4275;42.854;23.222;2023-09-07T13:39:33;19.38;;;18.27;;
8476;SDS011;4275;42.854;23.222;2023-09-07T13:42:00;19.77;;;18.67;;
8476;SDS011;4275;42.854;23.222;2023-09-07T13:44:27;19.85;;;18.65;;
8476;SDS011;4275;42.854;23.222;2023-09-07T13:46:54;19.60;;;18.58;;
8476;SDS011;4275;42.854;23.222;2023-09-07T13:49:23;19.73;;;18.63;;
8476;SDS011;4275;42.854;23.222;2023-09-07T13:51:50;19.77;;;18.67;;
8476;SDS011;4275;42.854;23.222;2023-09-07T13:54:17;19.52;;;18.33;;
8476;SDS011;4275;42.854;23.222;2023-09-07T13:56:44;19.60;;;18.50;;
8476;SDS011;4275;42.854;23.222;2023-09-07T13:59:12;19.35;;;18.25;;
8476;SDS011;4275;42.854;23.222;2023-09-07T14:01:38;19.30;;;18.10;;
8476;SDS011;4275;42.854;23.222;2023-09-07T14:04:06;19.90;;;18.80;;
8476;SDS011;4275;42.854;23.222;2023-09-07T14:06:35;20.65;;;19.45;;
8476;SDS011;4275;42.854;23.222;2023-09-07T14:09:02;19.90;;;18.80;;
8476;SDS011;4275;42.854;23.222;2023-09-07T14:11:32;19.65;;;18.55;;
8476;SDS011;4275;42.854;23.222;2023-09-07T14:13:59;19.80;;;18.63;;
8476;SDS011;4275;42.854;23.222;2023-09-07T14:16:26;19.40;;;18.30;;
8476;SDS011;4275;42.854;23.222;2023-09-07T14:18:54;20.30;;;19.20;;
8476;SDS011;4275;42.854;23.222;2023-09-07T14:21:21;19.75;;;18.55;;
8476;SDS011;4275;42.854;23.222;2023-09-07T14:23:50;19.73;;;18.52;;
8476;SDS011;4275;42.854;23.222;2023-09-07T14:26:16;19.40;;;18.30;;
8476;SDS011;4275;42.854;23.222;2023-09-07T14:28:43;19.70;;;18.60;;
8476;SDS011;4275;42.854;23.222;2023-09-07T14:31:10;19.30;;;18.20;;
8476;SDS011;4275;42.854;23.222;2023-09-07T14:33:37;19.52;;;18.33;;
8476;SDS011;4275;42.854;23.222;2023-09-07T14:36:06;19.30;;;18.20;;
8476;SDS011;4275;42.854;23.222;2023-09-07T14:38:34;20.20;;;19.00;;
8476;SDS011;4275;42.854;23.222;2023-09-07T14:41:07;19.77;;;18.58;;
8476;SDS011;4275;42.854;23.222;2023-09-07T14:43:36;19.90;;;18.70;;
8476;SDS011;4275;42.854;23.222;2023-09-07T14:46:03;19.58;;;18.48;;
8476;SDS011;4275;42.854;23.222;2023-09-07T14:48:31;19.92;;;18.83;;
8476;SDS011;4275;42.854;23.222;2023-09-07T14:50:58;19.58;;;18.58;;
8476;SDS011;4275;42.854;23.222;2023-09-07T14:53:25;19.90;;;18.80;;
8476;SDS011;4275;42.854;23.222;2023-09-07T14:55:52;19.73;;;18.63;;
8476;SDS011;4275;42.854;23.222;2023-09-07T14:58:20;19.50;;;18.40;;
8476;SDS011;4275;42.854;23.222;2023-09-07T15:00:47;19.95;;;18.75;;
8476;SDS011;4275;42.854;23.222;2023-09-07T15:03:14;19.80;;;18.70;;
8476;SDS011;4275;42.854;23.222;2023-09-07T15:05:41;20.17;;;18.98;;
8476;SDS011;4275;42.854;23.222;2023-09-07T15:08:08;19.92;;;18.83;;
8476;SDS011;4275;42.854;23.222;2023-09-07T15:10:35;20.13;;;18.98;;
8476;SDS011;4275;42.854;23.222;2023-09-07T15:13:02;20.33;;;19.13;;
8476;SDS011;4275;42.854;23.222;2023-09-07T15:15:31;20.05;;;18.95;;